createdAt,value
2023-02-23T00:01:54.140Z,78.74
2023-02-23T00:04:20.971Z,78.04
2023-02-23T00:06:47.751Z,78.66
2023-02-23T00:09:24.005Z,79.10
2023-02-23T00:11:55.232Z,79.17
2023-02-23T00:14:24.624Z,78.12
2023-02-23T00:16:51.164Z,78.15
2023-02-23T00:19:17.662Z,78.91
2023-02-23T00:21:45.383Z,78.98
2023-02-23T00:24:15.661Z,78.28
2023-02-23T00:26:42.653Z,77.71
2023-02-23T00:29:17.077Z,78.85
2023-02-23T00:31:47.349Z,78.17
2023-02-23T00:34:16.920Z,78.63
2023-02-23T00:36:43.448Z,78.05
2023-02-23T00:39:21.722Z,78.37
2023-02-23T00:41:49.616Z,77.62
2023-02-23T00:44:16.337Z,77.71
2023-02-23T00:46:44.522Z,78.26
2023-02-23T00:49:13.352Z,78.40
2023-02-23T00:51:41.353Z,78.28
2023-02-23T00:54:10.121Z,77.86
2023-02-23T00:56:36.507Z,78.00
2023-02-23T00:59:02.988Z,78.93
2023-02-23T01:01:29.901Z,78.50
2023-02-23T01:03:56.445Z,78.73
2023-02-23T01:06:23.645Z,78.60
2023-02-23T01:08:56.629Z,78.60
2023-02-23T01:11:27.832Z,78.93
2023-02-23T01:13:55.720Z,79.00
2023-02-23T01:16:28.468Z,78.74
2023-02-23T01:18:56.530Z,78.79
2023-02-23T01:21:27.766Z,79.04
2023-02-23T01:23:55.046Z,78.63
2023-02-23T01:26:23.089Z,78.58
2023-02-23T01:28:50.952Z,79.78
2023-02-23T01:31:18.567Z,79.70
2023-02-23T01:33:45.993Z,79.66
2023-02-23T01:36:13.242Z,79.39
2023-02-23T01:38:40.624Z,79.37
2023-02-23T01:41:08.997Z,80.18
2023-02-23T01:43:37.039Z,79.19
2023-02-23T01:46:03.801Z,79.09
2023-02-23T01:48:37.960Z,79.62
2023-02-23T01:51:15.014Z,78.88
2023-02-23T01:54:10.885Z,79.00
2023-02-23T01:56:45.215Z,78.86
2023-02-23T01:59:15.189Z,80.18
2023-02-23T02:01:42.656Z,79.79
2023-02-23T02:04:20.774Z,78.97
2023-02-23T02:06:53.361Z,79.91
2023-02-23T02:09:25.531Z,79.29
2023-02-23T02:11:54.224Z,79.29
2023-02-23T02:14:29.192Z,79.41
2023-02-23T02:17:46.456Z,78.86
2023-02-23T02:20:33.443Z,79.06
2023-02-23T02:23:27.642Z,78.82
2023-02-23T02:26:18.516Z,78.78
2023-02-23T02:29:26.329Z,79.70
2023-02-23T02:32:13.655Z,79.37
2023-02-23T02:35:16.281Z,80.47
2023-02-23T02:37:50.104Z,80.10
2023-02-23T02:40:36.298Z,79.69
2023-02-23T02:43:16.571Z,79.64
2023-02-23T02:46:06.356Z,79.64
2023-02-23T02:49:23.199Z,79.72
2023-02-23T02:52:25.340Z,80.25
2023-02-23T02:55:09.299Z,79.92
2023-02-23T02:57:37.258Z,80.47
2023-02-23T03:00:23.181Z,80.41
2023-02-23T03:03:08.406Z,79.84
2023-02-23T03:06:04.264Z,80.52
2023-02-23T03:08:59.174Z,80.39
2023-02-23T03:11:59.601Z,80.88
2023-02-23T03:15:08.246Z,81.21
2023-02-23T03:18:05.203Z,81.09
2023-02-23T03:20:53.062Z,80.97
2023-02-23T03:23:58.200Z,81.69
2023-02-23T03:26:55.725Z,80.79
2023-02-23T03:29:51.515Z,80.85
2023-02-23T03:32:55.957Z,81.52
2023-02-23T03:36:00.593Z,81.34
2023-02-23T03:39:29.022Z,81.72
2023-02-23T03:42:15.771Z,81.23
2023-02-23T03:45:04.063Z,81.25
2023-02-23T03:47:54.844Z,81.28
2023-02-23T03:50:47.075Z,81.94
2023-02-23T03:53:35.861Z,81.43
2023-02-23T03:56:22.320Z,82.25
2023-02-23T03:59:11.806Z,82.56
2023-02-23T04:01:57.621Z,82.88
2023-02-23T04:04:46.131Z,82.88
2023-02-23T04:07:35.065Z,82.58
2023-02-23T04:10:20.930Z,82.27
2023-02-23T04:13:12.796Z,82.63
2023-02-23T04:15:44.184Z,82.65
2023-02-23T04:18:14.766Z,82.74
2023-02-23T04:20:41.294Z,82.63
2023-02-23T04:23:07.769Z,83.64
2023-02-23T04:25:34.271Z,83.16
2023-02-23T04:28:00.725Z,83.92
2023-02-23T04:30:28.354Z,83.90
2023-02-23T04:32:55.469Z,83.68
2023-02-23T04:35:22.466Z,83.78
2023-02-23T04:37:48.914Z,84.61
2023-02-23T04:40:15.411Z,83.78
2023-02-23T04:42:41.897Z,84.26
2023-02-23T04:45:08.822Z,84.34
2023-02-23T04:47:35.398Z,84.94
2023-02-23T04:50:01.980Z,85.50
2023-02-23T04:52:28.427Z,85.31
2023-02-23T04:54:54.851Z,84.92
2023-02-23T04:57:21.291Z,85.49
2023-02-23T04:59:47.719Z,85.53
2023-02-23T05:02:14.196Z,85.34
2023-02-23T05:04:40.642Z,86.24
2023-02-23T05:07:07.138Z,86.00
2023-02-23T05:09:33.768Z,85.71
2023-02-23T05:12:00.238Z,86.34
2023-02-23T05:14:27.075Z,85.88
2023-02-23T05:16:53.520Z,86.08
2023-02-23T05:19:19.942Z,87.05
2023-02-23T05:21:46.681Z,86.94
2023-02-23T05:24:13.124Z,86.52
2023-02-23T05:26:39.878Z,86.69
2023-02-23T05:29:06.595Z,87.40
2023-02-23T05:31:33.077Z,86.99
2023-02-23T05:33:59.528Z,87.71
2023-02-23T05:36:26.210Z,87.81
2023-02-23T05:38:52.721Z,88.27
2023-02-23T05:41:22.976Z,88.38
2023-02-23T05:43:53.853Z,88.62
2023-02-23T05:46:24.034Z,88.00
2023-02-23T05:48:51.292Z,88.84
2023-02-23T05:51:18.689Z,88.93
2023-02-23T05:53:46.654Z,88.70
2023-02-23T05:56:20.647Z,89.01
2023-02-23T05:58:51.719Z,88.88
2023-02-23T06:01:19.578Z,88.99
2023-02-23T06:03:47.199Z,88.88
2023-02-23T06:06:14.499Z,89.25
2023-02-23T06:08:42.074Z,89.38
2023-02-23T06:11:09.188Z,89.26
2023-02-23T06:13:35.665Z,89.77
2023-02-23T06:16:02.113Z,89.14
2023-02-23T06:18:29.656Z,90.01
2023-02-23T06:21:00.374Z,89.61
2023-02-23T06:23:28.035Z,89.86
2023-02-23T06:25:54.480Z,90.04
2023-02-23T06:28:20.883Z,90.64
2023-02-23T06:30:48.663Z,89.91
2023-02-23T06:33:15.141Z,90.43
2023-02-23T06:35:42.609Z,90.04
2023-02-23T06:38:09.084Z,90.21
2023-02-23T06:40:35.496Z,90.49
2023-02-23T06:43:03.484Z,91.26
2023-02-23T06:45:29.922Z,91.25
2023-02-23T06:47:56.720Z,91.36
2023-02-23T06:50:23.108Z,90.79
2023-02-23T06:52:49.808Z,90.72
2023-02-23T06:55:16.897Z,90.72
2023-02-23T06:57:43.937Z,91.39
2023-02-23T07:00:14.998Z,91.27
2023-02-23T07:02:42.018Z,91.11
2023-02-23T07:05:08.928Z,91.58
2023-02-23T07:07:35.413Z,91.39
2023-02-23T07:10:01.801Z,90.92
2023-02-23T07:12:28.276Z,91.41
2023-02-23T07:14:54.656Z,91.17
2023-02-23T07:17:21.064Z,90.95
2023-02-23T07:19:48.009Z,90.97
2023-02-23T07:22:14.438Z,91.34
2023-02-23T07:24:40.845Z,91.09
2023-02-23T07:27:07.261Z,90.80
2023-02-23T07:29:33.723Z,91.50
2023-02-23T07:32:00.451Z,91.30
2023-02-23T07:34:27.032Z,91.54
2023-02-23T07:36:53.489Z,91.57
2023-02-23T07:39:20.356Z,91.83
2023-02-23T07:41:46.755Z,91.73
2023-02-23T07:44:19.826Z,92.20
2023-02-23T07:46:46.464Z,92.27
2023-02-23T07:49:13.904Z,92.05
2023-02-23T07:51:40.901Z,91.77
2023-02-23T07:54:07.369Z,92.42
2023-02-23T07:56:33.936Z,92.38
2023-02-23T07:59:00.338Z,92.39
2023-02-23T08:01:26.876Z,92.39
2023-02-23T08:03:53.425Z,92.65
2023-02-23T08:06:20.029Z,91.89
2023-02-23T08:08:46.745Z,92.24
2023-02-23T08:11:13.497Z,92.16
2023-02-23T08:13:40.427Z,92.19
2023-02-23T08:16:07.280Z,92.26
2023-02-23T08:18:34.319Z,92.13
2023-02-23T08:21:02.655Z,92.08
2023-02-23T08:23:31.135Z,92.05
2023-02-23T08:25:57.994Z,92.58
2023-02-23T08:28:25.134Z,92.47
2023-02-23T08:30:51.787Z,91.88
2023-02-23T08:33:18.440Z,91.89
2023-02-23T08:35:45.319Z,92.22
2023-02-23T08:38:11.943Z,91.75
2023-02-23T08:40:38.374Z,91.86
2023-02-23T08:43:04.748Z,92.13
2023-02-23T08:45:31.145Z,92.20
2023-02-23T08:47:57.534Z,91.76
2023-02-23T08:50:25.835Z,91.96
2023-02-23T08:52:53.932Z,92.08
2023-02-23T08:55:21.663Z,91.91
2023-02-23T08:57:48.130Z,92.17
2023-02-23T09:00:16.653Z,91.62
2023-02-23T09:02:45.334Z,91.72
2023-02-23T09:05:11.821Z,91.68
2023-02-23T09:07:40.021Z,92.43
2023-02-23T09:10:07.171Z,91.75
2023-02-23T09:12:33.597Z,92.49
2023-02-23T09:15:00.225Z,92.04
2023-02-23T09:17:26.725Z,91.99
2023-02-23T09:19:53.349Z,91.73
2023-02-23T09:22:19.840Z,92.18
2023-02-23T09:24:46.236Z,91.93
2023-02-23T09:27:12.983Z,91.70
2023-02-23T09:29:42.342Z,92.06
2023-02-23T09:32:09.394Z,91.99
2023-02-23T09:34:37.547Z,92.06
2023-02-23T09:37:05.202Z,91.74
2023-02-23T09:39:38.216Z,91.87
2023-02-23T09:42:20.054Z,91.66
2023-02-23T09:45:12.207Z,91.89
2023-02-23T09:48:00.161Z,91.66
2023-02-23T09:50:29.745Z,91.90
2023-02-23T09:53:04.971Z,91.77
2023-02-23T09:55:32.121Z,91.85
2023-02-23T09:58:08.007Z,91.75
2023-02-23T10:00:44.706Z,91.85
2023-02-23T10:03:30.521Z,91.67
2023-02-23T10:06:04.154Z,91.52
2023-02-23T10:08:41.318Z,91.71
2023-02-23T10:11:35.818Z,91.19
2023-02-23T10:14:18.719Z,91.19
2023-02-23T10:16:58.805Z,91.27
2023-02-23T10:19:35.748Z,91.22
2023-02-23T10:22:09.191Z,91.16
2023-02-23T10:25:02.667Z,90.99
2023-02-23T10:27:37.610Z,90.82
2023-02-23T10:30:04.873Z,90.87
2023-02-23T10:32:41.440Z,90.27
2023-02-23T10:35:15.123Z,90.38
2023-02-23T10:37:41.557Z,90.30
2023-02-23T10:40:15.958Z,89.74
2023-02-23T10:42:42.362Z,89.42
2023-02-23T10:45:18.646Z,88.61
2023-02-23T10:47:46.288Z,87.99
2023-02-23T10:50:14.746Z,87.77
2023-02-23T10:52:47.876Z,86.66
2023-02-23T10:55:27.579Z,86.30
2023-02-23T10:58:18.802Z,85.66
2023-02-23T11:01:05.591Z,84.74
2023-02-23T11:03:43.154Z,84.20
2023-02-23T11:06:36.296Z,83.86
2023-02-23T11:09:33.069Z,82.68
2023-02-23T11:12:22.489Z,82.09
2023-02-23T11:14:58.898Z,81.93
2023-02-23T11:17:37.477Z,82.08
2023-02-23T11:20:25.962Z,80.78
2023-02-23T11:22:52.624Z,80.53
2023-02-23T11:25:28.428Z,79.36
2023-02-23T11:27:57.021Z,79.39
2023-02-23T11:30:29.406Z,79.47
2023-02-23T11:32:58.778Z,78.81
2023-02-23T11:35:29.557Z,78.46
2023-02-23T11:37:56.369Z,78.13
2023-02-23T11:40:29.358Z,77.61
2023-02-23T11:43:05.010Z,76.66
2023-02-23T11:45:37.870Z,76.36
2023-02-23T11:48:05.159Z,76.66
2023-02-23T11:50:36.546Z,76.60
2023-02-23T11:53:13.680Z,77.18
2023-02-23T11:55:47.238Z,77.31
2023-02-23T11:58:35.665Z,77.43
2023-02-23T12:01:12.226Z,77.78
2023-02-23T12:03:47.580Z,77.19
2023-02-23T12:06:29.920Z,76.78
2023-02-23T12:09:26.313Z,76.67
2023-02-23T12:12:02.943Z,75.83
2023-02-23T12:14:49.704Z,74.49
2023-02-23T12:17:23.927Z,74.75
2023-02-23T12:19:58.146Z,74.34
2023-02-23T12:22:32.961Z,74.29
2023-02-23T12:25:04.868Z,74.21
2023-02-23T12:27:38.739Z,74.39
2023-02-23T12:30:27.412Z,74.42
2023-02-23T12:33:00.306Z,73.32
2023-02-23T12:35:55.466Z,73.13
2023-02-23T12:38:33.131Z,73.38
2023-02-23T12:41:06.579Z,72.33
2023-02-23T12:43:49.123Z,72.03
2023-02-23T12:46:23.368Z,71.72
2023-02-23T12:49:00.488Z,71.90
2023-02-23T12:51:32.848Z,71.97
2023-02-23T12:53:59.344Z,72.25
2023-02-23T12:56:42.405Z,70.96
2023-02-23T12:59:13.401Z,70.20
2023-02-23T13:01:51.436Z,69.63
2023-02-23T13:04:45.803Z,69.46
2023-02-23T13:07:22.765Z,70.04
2023-02-23T13:10:09.708Z,69.54
2023-02-23T13:12:41.979Z,70.09
2023-02-23T13:15:23.659Z,69.75
2023-02-23T13:18:01.494Z,68.85
2023-02-23T13:20:43.570Z,67.96
2023-02-23T13:23:32.155Z,67.03
2023-02-23T13:26:10.668Z,66.77
2023-02-23T13:28:52.608Z,66.13
2023-02-23T13:31:36.940Z,65.87
2023-02-23T13:34:09.322Z,66.11
2023-02-23T13:36:36.755Z,66.24
2023-02-23T13:39:21.525Z,65.77
2023-02-23T13:42:20.572Z,65.85
2023-02-23T13:45:25.660Z,65.16
2023-02-23T13:48:13.572Z,65.83
2023-02-23T13:51:04.976Z,65.80
2023-02-23T13:53:43.529Z,65.39
2023-02-23T13:56:23.726Z,65.06
2023-02-23T13:58:57.616Z,64.95
2023-02-23T14:01:33.316Z,63.37
2023-02-23T14:04:03.873Z,62.57
2023-02-23T14:06:34.324Z,61.50
2023-02-23T14:09:08.914Z,61.80
2023-02-23T14:11:49.592Z,62.43
2023-02-23T14:14:31.640Z,62.12
2023-02-23T14:17:31.182Z,62.47
2023-02-23T14:20:29.259Z,60.08
2023-02-23T14:23:21.151Z,59.26
2023-02-23T14:26:16.062Z,58.52
2023-02-23T14:29:07.608Z,58.68
2023-02-23T14:31:35.501Z,58.88
2023-02-23T14:34:08.013Z,59.32
2023-02-23T14:36:43.083Z,60.11
2023-02-23T14:39:17.874Z,60.28
2023-02-23T14:41:54.515Z,59.88
2023-02-23T14:44:32.204Z,60.62
2023-02-23T14:47:03.226Z,60.47
2023-02-23T14:49:35.544Z,60.72
2023-02-23T14:52:29.431Z,60.43
2023-02-23T14:55:11.399Z,60.63
2023-02-23T14:57:40.080Z,60.84
2023-02-23T15:00:23.189Z,61.08
2023-02-23T15:03:01.180Z,61.31
2023-02-23T15:05:51.276Z,61.71
2023-02-23T15:08:22.952Z,62.32
2023-02-23T15:10:52.938Z,62.65
2023-02-23T15:13:31.602Z,62.92
2023-02-23T15:16:03.590Z,63.06
2023-02-23T15:19:26.402Z,63.53
2023-02-23T15:21:58.145Z,63.51
2023-02-23T15:24:42.518Z,63.91
2023-02-23T15:27:24.821Z,63.55
2023-02-23T15:29:51.393Z,64.48
2023-02-23T15:32:26.164Z,64.81
2023-02-23T15:34:55.418Z,64.21
2023-02-23T15:37:36.888Z,64.08
2023-02-23T15:40:06.540Z,64.40
2023-02-23T15:42:45.037Z,64.43
2023-02-23T15:45:30.098Z,64.93
2023-02-23T15:48:00.127Z,64.85
2023-02-23T15:50:37.017Z,64.83
2023-02-23T15:53:13.722Z,64.94
2023-02-23T15:55:43.230Z,65.15
2023-02-23T15:58:21.156Z,66.71
2023-02-23T16:00:56.565Z,68.13
2023-02-23T16:03:45.884Z,68.80
2023-02-23T16:06:24.037Z,69.91
2023-02-23T16:09:25.901Z,70.47
2023-02-23T16:12:04.919Z,70.34
2023-02-23T16:14:55.607Z,71.36
2023-02-23T16:17:45.017Z,71.78
2023-02-23T16:20:20.176Z,72.07
2023-02-23T16:22:47.410Z,72.75
2023-02-23T16:25:18.593Z,72.90
2023-02-23T16:27:47.153Z,73.01
2023-02-23T16:30:16.907Z,74.24
2023-02-23T16:32:44.903Z,74.20
2023-02-23T16:35:20.055Z,75.18
2023-02-23T16:38:00.744Z,75.22
2023-02-23T16:40:27.369Z,75.66
2023-02-23T16:42:58.960Z,76.15
2023-02-23T16:45:26.804Z,76.72
2023-02-23T16:47:53.519Z,77.12
2023-02-23T16:50:24.807Z,77.40
2023-02-23T16:52:52.817Z,77.38
2023-02-23T16:55:25.428Z,77.83
2023-02-23T16:57:54.785Z,78.62
2023-02-23T17:00:28.597Z,79.10
2023-02-23T17:02:57.343Z,79.41
2023-02-23T17:05:24.550Z,79.81
2023-02-23T17:07:51.886Z,80.16
2023-02-23T17:10:25.055Z,80.26
2023-02-23T17:12:53.897Z,80.76
2023-02-23T17:15:21.872Z,80.73
2023-02-23T17:17:48.365Z,80.81
2023-02-23T17:20:21.646Z,80.79
2023-02-23T17:22:49.653Z,81.22
2023-02-23T17:25:17.058Z,81.33
2023-02-23T17:27:43.623Z,81.37
2023-02-23T17:30:11.744Z,81.45
2023-02-23T17:32:38.630Z,81.51
2023-02-23T17:35:05.791Z,81.51
2023-02-23T17:37:32.541Z,81.69
2023-02-23T17:39:58.988Z,81.65
2023-02-23T17:42:33.772Z,81.65
2023-02-23T17:45:02.055Z,81.88
2023-02-23T17:47:33.748Z,81.79
2023-02-23T17:50:01.319Z,81.85
2023-02-23T17:52:28.467Z,81.57
2023-02-23T17:54:55.544Z,81.56
2023-02-23T17:57:23.066Z,81.38
2023-02-23T17:59:50.393Z,81.72
2023-02-23T18:02:18.705Z,81.43
2023-02-23T18:04:45.352Z,81.35
2023-02-23T18:07:11.785Z,81.34
2023-02-23T18:09:38.583Z,81.47
2023-02-23T18:12:05.793Z,81.52
2023-02-23T18:14:32.891Z,81.43
2023-02-23T18:16:59.913Z,81.50
2023-02-23T18:19:27.318Z,81.76
2023-02-23T18:21:56.934Z,81.50
2023-02-23T18:24:24.105Z,81.81
2023-02-23T18:26:51.233Z,81.91
2023-02-23T18:29:20.497Z,82.30
2023-02-23T18:31:49.629Z,82.66
2023-02-23T18:34:16.216Z,82.85
2023-02-23T18:36:42.744Z,83.17
2023-02-23T18:39:10.620Z,83.12
2023-02-23T18:41:37.145Z,83.63
2023-02-23T18:44:06.767Z,83.74
2023-02-23T18:46:33.282Z,83.46
2023-02-23T18:48:59.901Z,83.58
2023-02-23T18:51:26.840Z,83.89
2023-02-23T18:53:53.792Z,83.67
2023-02-23T18:56:28.053Z,84.07
2023-02-23T18:58:59.692Z,83.96
2023-02-23T19:01:29.109Z,84.11
2023-02-23T19:03:58.425Z,84.18
2023-02-23T19:06:25.570Z,83.84
2023-02-23T19:08:54.260Z,83.47
2023-02-23T19:11:26.961Z,83.80
2023-02-23T19:13:55.133Z,83.30
2023-02-23T19:16:21.764Z,83.85
2023-02-23T19:18:48.292Z,83.38
2023-02-23T19:21:15.441Z,83.41
2023-02-23T19:23:41.936Z,83.65
2023-02-23T19:26:08.346Z,83.63
2023-02-23T19:28:34.748Z,83.29
2023-02-23T19:31:06.536Z,83.35
2023-02-23T19:33:34.319Z,83.73
2023-02-23T19:36:05.224Z,83.81
2023-02-23T19:38:31.698Z,83.63
2023-02-23T19:40:58.167Z,83.42
2023-02-23T19:43:25.388Z,84.08
2023-02-23T19:45:52.189Z,83.92
2023-02-23T19:48:18.682Z,84.04
2023-02-23T19:50:49.410Z,84.04
2023-02-23T19:53:16.257Z,84.31
2023-02-23T19:55:42.996Z,83.91
2023-02-23T19:58:09.767Z,84.15
2023-02-23T20:00:36.199Z,84.33
2023-02-23T20:03:06.297Z,84.55
2023-02-23T20:05:41.161Z,84.65
2023-02-23T20:08:09.110Z,84.69
2023-02-23T20:10:35.651Z,85.00
2023-02-23T20:13:02.181Z,85.51
2023-02-23T20:15:28.593Z,86.19
2023-02-23T20:17:54.985Z,86.32
2023-02-23T20:20:25.393Z,86.54
2023-02-23T20:22:53.405Z,87.12
2023-02-23T20:25:21.036Z,86.74
2023-02-23T20:27:48.814Z,87.45
2023-02-23T20:30:15.323Z,87.25
2023-02-23T20:32:42.001Z,87.50
2023-02-23T20:35:11.157Z,87.24
2023-02-23T20:37:37.736Z,87.58
2023-02-23T20:40:15.078Z,87.46
2023-02-23T20:42:43.134Z,87.77
2023-02-23T20:45:09.853Z,87.68
2023-02-23T20:47:36.644Z,87.78
2023-02-23T20:50:04.844Z,87.71
2023-02-23T20:52:31.970Z,87.46
2023-02-23T20:54:58.369Z,88.09
2023-02-23T20:57:26.752Z,87.59
2023-02-23T20:59:53.208Z,87.69
2023-02-23T21:02:19.738Z,87.80
2023-02-23T21:04:46.265Z,88.27
2023-02-23T21:07:13.516Z,88.43
2023-02-23T21:09:40.677Z,88.47
2023-02-23T21:12:10.181Z,88.13
2023-02-23T21:14:36.619Z,88.27
2023-02-23T21:17:03.075Z,88.46
2023-02-23T21:19:30.840Z,88.80
2023-02-23T21:21:58.454Z,88.48
2023-02-23T21:24:26.006Z,88.58
2023-02-23T21:26:52.420Z,88.71
2023-02-23T21:29:23.586Z,88.61
2023-02-23T21:31:50.081Z,88.84
2023-02-23T21:34:19.835Z,88.60
2023-02-23T21:36:46.767Z,88.64
2023-02-23T21:39:13.252Z,89.17
2023-02-23T21:41:39.868Z,88.73
2023-02-23T21:44:07.912Z,88.67
2023-02-23T21:46:34.913Z,88.91
2023-02-23T21:49:07.068Z,88.82
2023-02-23T21:51:34.621Z,88.52
2023-02-23T21:54:01.039Z,88.97
2023-02-23T21:56:27.573Z,88.37
2023-02-23T21:58:55.460Z,88.77
2023-02-23T22:01:30.977Z,88.22
2023-02-23T22:03:57.740Z,88.42
2023-02-23T22:06:27.384Z,88.57
2023-02-23T22:08:54.392Z,88.05
2023-02-23T22:11:26.705Z,88.18
2023-02-23T22:14:01.409Z,88.37
2023-02-23T22:16:31.259Z,88.71
2023-02-23T22:18:58.415Z,87.91
2023-02-23T22:21:24.903Z,88.42
2023-02-23T22:23:53.292Z,88.22
2023-02-23T22:26:20.352Z,88.39
2023-02-23T22:28:46.984Z,88.72
2023-02-23T22:31:14.158Z,88.21
2023-02-23T22:33:42.998Z,88.64
2023-02-23T22:36:13.122Z,87.95
2023-02-23T22:38:41.676Z,88.17
2023-02-23T22:41:14.595Z,88.33
2023-02-23T22:43:46.077Z,88.07
2023-02-23T22:46:14.758Z,87.72
2023-02-23T22:48:46.584Z,88.26
2023-02-23T22:51:14.608Z,87.79
2023-02-23T22:53:41.658Z,88.45
2023-02-23T22:56:08.876Z,88.86
2023-02-23T22:58:36.175Z,88.47
2023-02-23T23:01:04.827Z,88.94
2023-02-23T23:03:37.522Z,89.26
2023-02-23T23:06:06.148Z,89.03
2023-02-23T23:08:37.048Z,88.69
2023-02-23T23:11:09.549Z,88.72
2023-02-23T23:13:38.286Z,89.27
2023-02-23T23:16:29.294Z,89.17
2023-02-23T23:19:04.237Z,89.57
2023-02-23T23:21:33.662Z,89.45
2023-02-23T23:24:05.539Z,89.15
2023-02-23T23:26:34.302Z,89.49
2023-02-23T23:29:04.690Z,89.10
2023-02-23T23:31:34.712Z,89.23
2023-02-23T23:34:04.342Z,89.21
2023-02-23T23:36:33.596Z,89.19
2023-02-23T23:39:01.115Z,89.38
2023-02-23T23:41:30.301Z,89.44
2023-02-23T23:43:58.947Z,89.39
2023-02-23T23:46:28.081Z,89.64
2023-02-23T23:48:55.873Z,89.45
2023-02-23T23:51:27.484Z,89.11
2023-02-23T23:53:55.071Z,89.55
2023-02-23T23:56:21.488Z,89.28
2023-02-23T23:58:48.962Z,90.03
